sensor_id;sensor_type;location;lat;lon;timestamp;pressure;altitude;pressure_sealevel;temperature;humidity
10462;BME280;5278;42.656;23.374;2023-04-27T00:00:29;94312.28;;;10.82;52.37
10462;BME280;5278;42.656;23.374;2023-04-27T00:02:56;94303.94;;;10.87;52.84
10462;BME280;5278;42.656;23.374;2023-04-27T00:05:23;94311.72;;;10.87;52.25
10462;BME280;5278;42.656;23.374;2023-04-27T00:07:50;94316.50;;;10.83;52.08
10462;BME280;5278;42.656;23.374;2023-04-27T00:10:17;94318.19;;;10.76;52.22
10462;BME280;5278;42.656;23.374;2023-04-27T00:12:44;94317.75;;;10.72;52.35
10462;BME280;5278;42.656;23.374;2023-04-27T00:15:10;94325.13;;;10.69;52.70
10462;BME280;5278;42.656;23.374;2023-04-27T00:17:39;94319.94;;;10.69;52.41
10462;BME280;5278;42.656;23.374;2023-04-27T00:20:08;94321.63;;;10.62;52.74
10462;BME280;5278;42.656;23.374;2023-04-27T00:22:36;94319.78;;;10.56;52.67
10462;BME280;5278;42.656;23.374;2023-04-27T00:25:04;94325.50;;;10.51;52.85
10462;BME280;5278;42.656;23.374;2023-04-27T00:27:31;94319.44;;;10.29;53.35
10462;BME280;5278;42.656;23.374;2023-04-27T00:29:58;94332.88;;;10.18;53.83
10462;BME280;5278;42.656;23.374;2023-04-27T00:32:25;94314.03;;;10.02;53.57
10462;BME280;5278;42.656;23.374;2023-04-27T00:34:53;94320.41;;;10.14;53.82
10462;BME280;5278;42.656;23.374;2023-04-27T00:37:20;94329.63;;;10.16;53.95
10462;BME280;5278;42.656;23.374;2023-04-27T00:39:47;94334.72;;;10.10;53.56
10462;BME280;5278;42.656;23.374;2023-04-27T00:42:13;94333.75;;;9.96;53.96
10462;BME280;5278;42.656;23.374;2023-04-27T00:44:44;94317.63;;;9.86;54.44
10462;BME280;5278;42.656;23.374;2023-04-27T00:47:11;94332.84;;;9.89;54.59
10462;BME280;5278;42.656;23.374;2023-04-27T00:49:38;94333.97;;;9.86;54.62
10462;BME280;5278;42.656;23.374;2023-04-27T00:52:07;94334.06;;;9.78;54.79
10462;BME280;5278;42.656;23.374;2023-04-27T00:54:34;94337.47;;;9.79;55.26
10462;BME280;5278;42.656;23.374;2023-04-27T00:57:01;94340.06;;;9.79;55.48
10462;BME280;5278;42.656;23.374;2023-04-27T00:59:29;94341.69;;;9.80;55.17
10462;BME280;5278;42.656;23.374;2023-04-27T01:01:56;94332.91;;;9.81;55.08
10462;BME280;5278;42.656;23.374;2023-04-27T01:04:23;94343.31;;;9.81;55.21
10462;BME280;5278;42.656;23.374;2023-04-27T01:06:50;94357.94;;;9.74;54.80
10462;BME280;5278;42.656;23.374;2023-04-27T01:09:19;94338.38;;;9.71;55.39
10462;BME280;5278;42.656;23.374;2023-04-27T01:11:46;94349.53;;;9.72;55.60
10462;BME280;5278;42.656;23.374;2023-04-27T01:14:13;94343.72;;;9.70;55.70
10462;BME280;5278;42.656;23.374;2023-04-27T01:16:41;94351.13;;;9.73;55.96
10462;BME280;5278;42.656;23.374;2023-04-27T01:19:08;94353.13;;;9.71;55.24
10462;BME280;5278;42.656;23.374;2023-04-27T01:21:35;94364.19;;;9.65;56.16
10462;BME280;5278;42.656;23.374;2023-04-27T01:24:05;94351.28;;;9.57;56.25
10462;BME280;5278;42.656;23.374;2023-04-27T01:28:59;94348.19;;;9.61;55.83
10462;BME280;5278;42.656;23.374;2023-04-27T01:31:25;94355.75;;;9.63;55.60
10462;BME280;5278;42.656;23.374;2023-04-27T01:33:52;94356.00;;;9.53;56.35
10462;BME280;5278;42.656;23.374;2023-04-27T01:36:19;94346.41;;;9.39;56.30
10462;BME280;5278;42.656;23.374;2023-04-27T01:38:46;94360.97;;;9.40;56.88
10462;BME280;5278;42.656;23.374;2023-04-27T01:41:14;94367.13;;;9.39;56.80
10462;BME280;5278;42.656;23.374;2023-04-27T01:43:41;94363.91;;;9.37;56.63
10462;BME280;5278;42.656;23.374;2023-04-27T01:46:10;94355.47;;;9.20;56.69
10462;BME280;5278;42.656;23.374;2023-04-27T01:48:38;94366.94;;;9.26;57.53
10462;BME280;5278;42.656;23.374;2023-04-27T01:51:05;94360.13;;;9.25;57.42
10462;BME280;5278;42.656;23.374;2023-04-27T01:53:32;94368.41;;;9.20;56.73
10462;BME280;5278;42.656;23.374;2023-04-27T01:55:59;94370.88;;;9.14;56.68
10462;BME280;5278;42.656;23.374;2023-04-27T01:58:28;94367.03;;;9.10;57.63
10462;BME280;5278;42.656;23.374;2023-04-27T02:00:55;94367.84;;;9.10;57.28
10462;BME280;5278;42.656;23.374;2023-04-27T02:03:22;94367.94;;;9.17;56.85
10462;BME280;5278;42.656;23.374;2023-04-27T02:05:49;94365.84;;;9.12;56.94
10462;BME280;5278;42.656;23.374;2023-04-27T02:08:15;94373.19;;;9.08;56.95
10462;BME280;5278;42.656;23.374;2023-04-27T02:10:42;94266.47;;;8.37;57.14
10462;BME280;5278;42.656;23.374;2023-04-27T02:13:09;94289.13;;;8.57;57.31
10462;BME280;5278;42.656;23.374;2023-04-27T02:15:37;94373.34;;;9.07;56.74
10462;BME280;5278;42.656;23.374;2023-04-27T02:18:04;94358.97;;;9.04;56.28
10462;BME280;5278;42.656;23.374;2023-04-27T02:20:32;94369.44;;;9.11;56.93
10462;BME280;5278;42.656;23.374;2023-04-27T02:22:59;94364.72;;;9.15;56.89
10462;BME280;5278;42.656;23.374;2023-04-27T02:25:26;94315.03;;;8.57;56.79
10462;BME280;5278;42.656;23.374;2023-04-27T02:27:53;94375.53;;;9.18;56.35
10462;BME280;5278;42.656;23.374;2023-04-27T02:30:20;94370.38;;;9.18;56.50
10462;BME280;5278;42.656;23.374;2023-04-27T02:32:48;94364.88;;;9.13;56.74
10462;BME280;5278;42.656;23.374;2023-04-27T02:35:15;94289.50;;;8.54;56.43
10462;BME280;5278;42.656;23.374;2023-04-27T02:37:42;94370.38;;;9.18;56.75
10462;BME280;5278;42.656;23.374;2023-04-27T02:40:10;94376.72;;;9.16;55.94
10462;BME280;5278;42.656;23.374;2023-04-27T02:42:37;94372.06;;;9.03;56.23
10462;BME280;5278;42.656;23.374;2023-04-27T02:45:05;94372.06;;;9.03;56.75
10462;BME280;5278;42.656;23.374;2023-04-27T02:47:32;94380.81;;;9.02;56.57
10462;BME280;5278;42.656;23.374;2023-04-27T02:50:01;94378.53;;;9.07;56.74
10462;BME280;5278;42.656;23.374;2023-04-27T02:52:28;94381.91;;;9.07;56.35
10462;BME280;5278;42.656;23.374;2023-04-27T02:54:55;94376.94;;;9.06;55.73
10462;BME280;5278;42.656;23.374;2023-04-27T02:57:22;94267.94;;;8.31;56.33
10462;BME280;5278;42.656;23.374;2023-04-27T02:59:49;94373.53;;;9.05;56.64
10462;BME280;5278;42.656;23.374;2023-04-27T03:02:16;94386.50;;;9.05;55.85
10462;BME280;5278;42.656;23.374;2023-04-27T03:04:42;94390.22;;;9.03;56.34
10462;BME280;5278;42.656;23.374;2023-04-27T03:07:11;94382.66;;;8.93;55.80
10462;BME280;5278;42.656;23.374;2023-04-27T03:09:38;94395.78;;;8.92;56.84
10462;BME280;5278;42.656;23.374;2023-04-27T03:12:04;94382.19;;;8.90;56.51
10462;BME280;5278;42.656;23.374;2023-04-27T03:14:31;94392.56;;;8.90;56.11
10462;BME280;5278;42.656;23.374;2023-04-27T03:16:59;94395.78;;;8.92;56.79
10462;BME280;5278;42.656;23.374;2023-04-27T03:19:27;94383.53;;;8.78;56.94
10462;BME280;5278;42.656;23.374;2023-04-27T03:21:54;94402.91;;;8.90;55.98
10462;BME280;5278;42.656;23.374;2023-04-27T03:24:22;94400.16;;;8.91;56.17
10462;BME280;5278;42.656;23.374;2023-04-27T03:26:50;94402.56;;;8.93;56.45
10462;BME280;5278;42.656;23.374;2023-04-27T03:29:17;94411.38;;;8.84;56.34
10462;BME280;5278;42.656;23.374;2023-04-27T03:31:44;94411.88;;;8.79;55.76
10462;BME280;5278;42.656;23.374;2023-04-27T03:34:11;94405.22;;;8.77;56.35
10462;BME280;5278;42.656;23.374;2023-04-27T03:36:38;94413.69;;;8.71;56.49
10462;BME280;5278;42.656;23.374;2023-04-27T03:39:05;94412.03;;;8.78;56.07
10462;BME280;5278;42.656;23.374;2023-04-27T03:41:33;94411.88;;;8.79;56.39
10462;BME280;5278;42.656;23.374;2023-04-27T03:44:00;94417.22;;;8.78;56.31
10462;BME280;5278;42.656;23.374;2023-04-27T03:46:27;94411.41;;;8.76;56.68
10462;BME280;5278;42.656;23.374;2023-04-27T03:48:54;94416.03;;;8.88;56.68
10462;BME280;5278;42.656;23.374;2023-04-27T03:51:21;94415.88;;;8.90;58.03
10462;BME280;5278;42.656;23.374;2023-04-27T03:53:48;94383.91;;;8.75;56.68
10462;BME280;5278;42.656;23.374;2023-04-27T03:56:15;94421.00;;;8.98;55.26
10462;BME280;5278;42.656;23.374;2023-04-27T03:58:44;94422.94;;;9.04;55.76
10462;BME280;5278;42.656;23.374;2023-04-27T04:01:11;94429.22;;;9.10;55.77
10462;BME280;5278;42.656;23.374;2023-04-27T04:03:39;94437.97;;;9.08;54.94
10462;BME280;5278;42.656;23.374;2023-04-27T04:06:06;94444.75;;;9.10;55.37
10462;BME280;5278;42.656;23.374;2023-04-27T04:08:33;94445.56;;;9.10;54.75
10462;BME280;5278;42.656;23.374;2023-04-27T04:11:00;94445.56;;;9.10;54.14
10462;BME280;5278;42.656;23.374;2023-04-27T04:13:27;94452.19;;;9.13;55.14
10462;BME280;5278;42.656;23.374;2023-04-27T04:16:01;94455.75;;;9.12;53.78
10462;BME280;5278;42.656;23.374;2023-04-27T04:18:28;94468.22;;;9.16;54.49
10462;BME280;5278;42.656;23.374;2023-04-27T04:20:55;94451.81;;;9.24;53.98
10462;BME280;5278;42.656;23.374;2023-04-27T04:23:22;94467.38;;;9.24;53.26
10462;BME280;5278;42.656;23.374;2023-04-27T04:25:49;94463.78;;;9.25;53.20
10462;BME280;5278;42.656;23.374;2023-04-27T04:28:16;94429.22;;;9.10;52.82
10462;BME280;5278;42.656;23.374;2023-04-27T04:30:43;94468.31;;;9.31;52.91
10462;BME280;5278;42.656;23.374;2023-04-27T04:33:11;94435.13;;;8.87;53.40
10462;BME280;5278;42.656;23.374;2023-04-27T04:35:38;94476.91;;;9.23;53.68
10462;BME280;5278;42.656;23.374;2023-04-27T04:38:06;94467.28;;;9.40;54.18
10462;BME280;5278;42.656;23.374;2023-04-27T04:40:33;94477.03;;;9.61;53.45
10462;BME280;5278;42.656;23.374;2023-04-27T04:43:00;94478.81;;;9.60;51.66
10462;BME280;5278;42.656;23.374;2023-04-27T04:45:27;94483.72;;;9.55;52.01
10462;BME280;5278;42.656;23.374;2023-04-27T04:47:54;94478.25;;;9.50;52.25
10462;BME280;5278;42.656;23.374;2023-04-27T04:50:22;94490.81;;;9.61;52.59
10462;BME280;5278;42.656;23.374;2023-04-27T04:52:50;94476.16;;;9.68;51.47
10462;BME280;5278;42.656;23.374;2023-04-27T04:55:17;94405.28;;;9.30;50.82
10462;BME280;5278;42.656;23.374;2023-04-27T04:57:44;94484.72;;;10.37;50.46
10462;BME280;5278;42.656;23.374;2023-04-27T05:00:12;94495.50;;;11.07;48.40
10462;BME280;5278;42.656;23.374;2023-04-27T05:02:39;94502.06;;;11.69;46.00
10462;BME280;5278;42.656;23.374;2023-04-27T05:05:07;94494.19;;;12.26;44.59
10462;BME280;5278;42.656;23.374;2023-04-27T05:07:36;94491.88;;;12.65;44.02
10462;BME280;5278;42.656;23.374;2023-04-27T05:10:03;94494.06;;;12.89;42.58
10462;BME280;5278;42.656;23.374;2023-04-27T05:12:30;94490.09;;;13.00;42.25
10462;BME280;5278;42.656;23.374;2023-04-27T05:14:57;94499.47;;;13.63;41.64
10462;BME280;5278;42.656;23.374;2023-04-27T05:17:24;94496.56;;;14.19;39.92
10462;BME280;5278;42.656;23.374;2023-04-27T05:19:50;94492.94;;;14.86;38.81
10462;BME280;5278;42.656;23.374;2023-04-27T05:22:17;94493.19;;;15.48;36.94
10462;BME280;5278;42.656;23.374;2023-04-27T05:24:46;94500.19;;;15.68;36.53
10462;BME280;5278;42.656;23.374;2023-04-27T05:27:13;94494.53;;;15.71;36.91
10462;BME280;5278;42.656;23.374;2023-04-27T05:29:40;94493.78;;;15.57;36.42
10462;BME280;5278;42.656;23.374;2023-04-27T05:32:07;94500.88;;;15.37;36.65
10462;BME280;5278;42.656;23.374;2023-04-27T05:34:34;94498.13;;;15.12;36.96
10462;BME280;5278;42.656;23.374;2023-04-27T05:37:01;94504.03;;;14.88;37.43
10462;BME280;5278;42.656;23.374;2023-04-27T05:39:28;94479.69;;;14.28;37.90
10462;BME280;5278;42.656;23.374;2023-04-27T05:41:56;94517.03;;;14.02;39.22
10462;BME280;5278;42.656;23.374;2023-04-27T05:44:23;94511.56;;;13.77;39.79
10462;BME280;5278;42.656;23.374;2023-04-27T05:46:53;94517.78;;;13.29;40.80
10462;BME280;5278;42.656;23.374;2023-04-27T05:49:20;94515.94;;;13.23;41.21
10462;BME280;5278;42.656;23.374;2023-04-27T05:51:47;94525.97;;;13.19;41.22
10462;BME280;5278;42.656;23.374;2023-04-27T05:54:15;94508.69;;;12.90;41.44
10462;BME280;5278;42.656;23.374;2023-04-27T05:56:41;94518.91;;;12.85;41.66
10462;BME280;5278;42.656;23.374;2023-04-27T05:59:10;94523.47;;;12.77;41.99
10462;BME280;5278;42.656;23.374;2023-04-27T06:01:37;94511.34;;;12.63;43.19
10462;BME280;5278;42.656;23.374;2023-04-27T06:04:03;94523.94;;;12.59;42.94
10462;BME280;5278;42.656;23.374;2023-04-27T06:06:31;94522.72;;;12.55;43.27
10462;BME280;5278;42.656;23.374;2023-04-27T06:08:58;94526.31;;;12.54;43.61
10462;BME280;5278;42.656;23.374;2023-04-27T06:11:25;94518.75;;;12.59;43.40
10462;BME280;5278;42.656;23.374;2023-04-27T06:13:52;94525.25;;;12.76;43.28
10462;BME280;5278;42.656;23.374;2023-04-27T06:16:21;94523.03;;;12.73;42.90
10462;BME280;5278;42.656;23.374;2023-04-27T06:18:48;94520.63;;;13.34;68.31
10462;BME280;5278;42.656;23.374;2023-04-27T06:21:15;94515.72;;;14.79;58.63
10462;BME280;5278;42.656;23.374;2023-04-27T06:23:42;94426.84;;;15.17;44.09
10462;BME280;5278;42.656;23.374;2023-04-27T06:26:09;94511.56;;;16.49;40.99
10462;BME280;5278;42.656;23.374;2023-04-27T06:28:36;94503.97;;;17.15;38.49
10462;BME280;5278;42.656;23.374;2023-04-27T06:31:03;94494.13;;;17.66;36.41
10462;BME280;5278;42.656;23.374;2023-04-27T06:33:32;94499.94;;;18.16;35.00
10462;BME280;5278;42.656;23.374;2023-04-27T06:35:59;94507.81;;;18.45;34.33
10462;BME280;5278;42.656;23.374;2023-04-27T06:38:26;94509.38;;;18.76;33.62
10462;BME280;5278;42.656;23.374;2023-04-27T06:40:53;94511.47;;;18.98;33.02
10462;BME280;5278;42.656;23.374;2023-04-27T06:43:20;94500.59;;;19.17;31.83
10462;BME280;5278;42.656;23.374;2023-04-27T06:45:47;94502.94;;;18.61;31.45
10462;BME280;5278;42.656;23.374;2023-04-27T06:48:14;94497.72;;;18.01;32.49
10462;BME280;5278;42.656;23.374;2023-04-27T06:50:43;94502.31;;;17.76;32.94
10462;BME280;5278;42.656;23.374;2023-04-27T06:53:10;94501.06;;;17.60;33.25
10462;BME280;5278;42.656;23.374;2023-04-27T06:55:37;94489.53;;;17.61;32.81
10462;BME280;5278;42.656;23.374;2023-04-27T06:58:04;94503.09;;;17.76;33.16
10462;BME280;5278;42.656;23.374;2023-04-27T07:00:31;94495.78;;;17.96;32.86
10462;BME280;5278;42.656;23.374;2023-04-27T07:02:58;94496.44;;;18.22;32.36
10462;BME280;5278;42.656;23.374;2023-04-27T07:05:25;94491.63;;;18.72;32.23
10462;BME280;5278;42.656;23.374;2023-04-27T07:07:53;94491.63;;;19.18;30.90
10462;BME280;5278;42.656;23.374;2023-04-27T07:10:20;94488.50;;;19.56;30.11
10462;BME280;5278;42.656;23.374;2023-04-27T07:12:47;94492.75;;;19.57;30.15
10462;BME280;5278;42.656;23.374;2023-04-27T07:15:14;94491.28;;;19.90;29.84
10462;BME280;5278;42.656;23.374;2023-04-27T07:17:41;94492.31;;;20.17;29.57
10462;BME280;5278;42.656;23.374;2023-04-27T07:20:08;94489.25;;;20.53;29.38
10462;BME280;5278;42.656;23.374;2023-04-27T07:22:35;94490.72;;;20.78;28.94
10462;BME280;5278;42.656;23.374;2023-04-27T07:25:04;94477.16;;;21.08;28.24
10462;BME280;5278;42.656;23.374;2023-04-27T07:27:31;94473.13;;;21.38;27.51
10462;BME280;5278;42.656;23.374;2023-04-27T07:29:57;94472.63;;;21.85;26.28
10462;BME280;5278;42.656;23.374;2023-04-27T07:32:25;94421.47;;;21.53;26.35
10462;BME280;5278;42.656;23.374;2023-04-27T07:34:54;94475.72;;;21.55;27.21
10462;BME280;5278;42.656;23.374;2023-04-27T07:37:21;94477.03;;;21.14;27.63
10462;BME280;5278;42.656;23.374;2023-04-27T07:39:49;94487.34;;;20.99;27.96
10462;BME280;5278;42.656;23.374;2023-04-27T07:42:19;94485.75;;;20.81;27.98
10462;BME280;5278;42.656;23.374;2023-04-27T07:44:46;94485.59;;;20.88;27.50
10462;BME280;5278;42.656;23.374;2023-04-27T07:47:14;94478.88;;;21.14;26.94
10462;BME280;5278;42.656;23.374;2023-04-27T07:49:42;94474.84;;;21.11;26.59
10462;BME280;5278;42.656;23.374;2023-04-27T07:52:10;94479.44;;;21.37;26.67
10462;BME280;5278;42.656;23.374;2023-04-27T07:54:37;94403.69;;;20.88;26.21
10462;BME280;5278;42.656;23.374;2023-04-27T07:57:07;94474.06;;;21.49;26.41
10462;BME280;5278;42.656;23.374;2023-04-27T07:59:36;94476.88;;;21.42;26.41
10462;BME280;5278;42.656;23.374;2023-04-27T08:02:03;94477.00;;;21.31;26.26
10462;BME280;5278;42.656;23.374;2023-04-27T08:04:30;94379.91;;;21.48;25.62
10462;BME280;5278;42.656;23.374;2023-04-27T08:06:57;94469.75;;;23.41;24.07
10462;BME280;5278;42.656;23.374;2023-04-27T08:09:23;94466.66;;;24.52;23.30
10462;BME280;5278;42.656;23.374;2023-04-27T08:11:51;94442.91;;;25.56;21.77
10462;BME280;5278;42.656;23.374;2023-04-27T08:14:18;94370.75;;;25.53;21.26
10462;BME280;5278;42.656;23.374;2023-04-27T08:16:46;94454.63;;;25.50;21.46
10462;BME280;5278;42.656;23.374;2023-04-27T08:19:13;94463.94;;;25.43;21.28
10462;BME280;5278;42.656;23.374;2023-04-27T08:21:40;94457.03;;;26.11;20.96
10462;BME280;5278;42.656;23.374;2023-04-27T08:24:07;94460.22;;;27.54;19.56
10462;BME280;5278;42.656;23.374;2023-04-27T08:26:34;94464.91;;;28.65;18.25
10462;BME280;5278;42.656;23.374;2023-04-27T08:29:01;94455.59;;;27.83;18.90
10462;BME280;5278;42.656;23.374;2023-04-27T08:31:28;94464.97;;;26.26;20.44
10462;BME280;5278;42.656;23.374;2023-04-27T08:33:56;94459.44;;;25.43;21.63
10462;BME280;5278;42.656;23.374;2023-04-27T08:36:24;94457.38;;;24.84;22.03
10462;BME280;5278;42.656;23.374;2023-04-27T08:38:52;94468.78;;;24.44;22.11
10462;BME280;5278;42.656;23.374;2023-04-27T08:41:19;94471.47;;;23.67;22.72
10462;BME280;5278;42.656;23.374;2023-04-27T08:43:47;94305.34;;;21.78;24.07
10462;BME280;5278;42.656;23.374;2023-04-27T08:46:17;94465.38;;;22.24;24.89
10462;BME280;5278;42.656;23.374;2023-04-27T08:48:45;94470.94;;;21.96;25.55
10462;BME280;5278;42.656;23.374;2023-04-27T08:51:14;94465.75;;;21.40;25.49
10462;BME280;5278;42.656;23.374;2023-04-27T08:53:47;94481.91;;;20.89;26.41
10462;BME280;5278;42.656;23.374;2023-04-27T08:56:15;94480.63;;;20.58;27.26
10462;BME280;5278;42.656;23.374;2023-04-27T08:58:42;94483.97;;;20.53;27.81
10462;BME280;5278;42.656;23.374;2023-04-27T09:01:09;94480.72;;;20.46;27.69
10462;BME280;5278;42.656;23.374;2023-04-27T09:03:36;94474.47;;;20.52;27.78
10462;BME280;5278;42.656;23.374;2023-04-27T09:06:04;94473.09;;;20.50;27.53
10462;BME280;5278;42.656;23.374;2023-04-27T09:08:42;94485.75;;;20.31;27.86
10462;BME280;5278;42.656;23.374;2023-04-27T09:11:10;94480.38;;;20.14;28.20
10462;BME280;5278;42.656;23.374;2023-04-27T09:13:38;94480.41;;;20.59;28.01
10462;BME280;5278;42.656;23.374;2023-04-27T09:16:06;94468.13;;;21.20;27.01
10462;BME280;5278;42.656;23.374;2023-04-27T09:18:35;94465.91;;;21.77;26.27
10462;BME280;5278;42.656;23.374;2023-04-27T09:21:02;94477.59;;;22.57;25.71
10462;BME280;5278;42.656;23.374;2023-04-27T09:23:31;94458.38;;;23.45;24.65
10462;BME280;5278;42.656;23.374;2023-04-27T09:26:00;94442.38;;;23.97;23.33
10462;BME280;5278;42.656;23.374;2023-04-27T09:28:29;94448.13;;;23.69;23.53
10462;BME280;5278;42.656;23.374;2023-04-27T09:30:57;94459.84;;;23.78;23.43
10462;BME280;5278;42.656;23.374;2023-04-27T09:33:25;94457.75;;;23.33;24.13
10462;BME280;5278;42.656;23.374;2023-04-27T09:35:52;94458.78;;;22.85;24.69
10462;BME280;5278;42.656;23.374;2023-04-27T09:38:20;94443.84;;;22.42;24.94
10462;BME280;5278;42.656;23.374;2023-04-27T09:40:48;94450.63;;;22.01;25.25
10462;BME280;5278;42.656;23.374;2023-04-27T09:43:17;94450.13;;;21.61;25.90
10462;BME280;5278;42.656;23.374;2023-04-27T09:45:44;94443.25;;;22.08;25.12
10462;BME280;5278;42.656;23.374;2023-04-27T09:48:11;94438.19;;;21.58;26.19
10462;BME280;5278;42.656;23.374;2023-04-27T09:50:39;94448.94;;;20.75;26.84
10462;BME280;5278;42.656;23.374;2023-04-27T09:53:09;94430.66;;;21.07;26.53
10462;BME280;5278;42.656;23.374;2023-04-27T09:55:40;94430.78;;;22.30;25.90
10462;BME280;5278;42.656;23.374;2023-04-27T09:58:24;94421.28;;;23.08;24.75
10462;BME280;5278;42.656;23.374;2023-04-27T10:01:03;94436.84;;;22.95;24.19
10462;BME280;5278;42.656;23.374;2023-04-27T10:03:36;94430.44;;;22.54;24.73
10462;BME280;5278;42.656;23.374;2023-04-27T10:06:41;94431.56;;;22.63;24.67
10462;BME280;5278;42.656;23.374;2023-04-27T10:09:11;94431.31;;;22.96;24.32
10462;BME280;5278;42.656;23.374;2023-04-27T10:11:40;94343.69;;;22.02;24.58
10462;BME280;5278;42.656;23.374;2023-04-27T10:14:13;94429.75;;;21.83;25.05
10462;BME280;5278;42.656;23.374;2023-04-27T10:16:46;94435.81;;;20.96;26.03
10462;BME280;5278;42.656;23.374;2023-04-27T10:19:13;94443.34;;;20.38;27.20
10462;BME280;5278;42.656;23.374;2023-04-27T10:21:51;94380.84;;;19.25;27.99
10462;BME280;5278;42.656;23.374;2023-04-27T10:24:18;94442.25;;;19.37;28.22
10462;BME280;5278;42.656;23.374;2023-04-27T10:26:46;94348.69;;;18.60;29.06
10462;BME280;5278;42.656;23.374;2023-04-27T10:29:14;94433.00;;;19.11;29.38
10462;BME280;5278;42.656;23.374;2023-04-27T10:31:43;94370.28;;;20.10;27.58
10462;BME280;5278;42.656;23.374;2023-04-27T10:34:15;94423.13;;;20.98;26.94
10462;BME280;5278;42.656;23.374;2023-04-27T10:36:42;94397.06;;;20.85;27.03
10462;BME280;5278;42.656;23.374;2023-04-27T10:39:14;94356.47;;;20.53;26.23
10462;BME280;5278;42.656;23.374;2023-04-27T10:41:48;94428.97;;;21.61;25.98
10462;BME280;5278;42.656;23.374;2023-04-27T10:44:20;94429.59;;;23.84;23.49
10462;BME280;5278;42.656;23.374;2023-04-27T10:46:51;94339.50;;;25.24;21.49
10462;BME280;5278;42.656;23.374;2023-04-27T10:49:18;94417.63;;;25.59;21.04
10462;BME280;5278;42.656;23.374;2023-04-27T10:51:49;94416.47;;;24.45;21.94
10462;BME280;5278;42.656;23.374;2023-04-27T10:54:16;94424.56;;;23.21;22.91
10462;BME280;5278;42.656;23.374;2023-04-27T10:56:43;94428.63;;;22.27;24.65
10462;BME280;5278;42.656;23.374;2023-04-27T10:59:10;94426.19;;;21.72;24.86
10462;BME280;5278;42.656;23.374;2023-04-27T11:01:39;94419.78;;;21.41;25.81
10462;BME280;5278;42.656;23.374;2023-04-27T11:04:08;94419.44;;;21.60;25.50
10462;BME280;5278;42.656;23.374;2023-04-27T11:06:41;94412.03;;;23.11;24.21
10462;BME280;5278;42.656;23.374;2023-04-27T11:09:09;94412.84;;;23.69;23.25
10462;BME280;5278;42.656;23.374;2023-04-27T11:11:36;94409.69;;;23.20;23.11
10462;BME280;5278;42.656;23.374;2023-04-27T11:14:06;94411.41;;;22.25;24.09
10462;BME280;5278;42.656;23.374;2023-04-27T11:16:33;94408.25;;;21.53;24.66
10462;BME280;5278;42.656;23.374;2023-04-27T11:19:04;94433.50;;;20.67;25.28
10462;BME280;5278;42.656;23.374;2023-04-27T11:21:31;94410.84;;;20.20;25.97
10462;BME280;5278;42.656;23.374;2023-04-27T11:24:03;94425.88;;;20.20;26.52
10462;BME280;5278;42.656;23.374;2023-04-27T11:26:30;94393.72;;;20.06;26.48
10462;BME280;5278;42.656;23.374;2023-04-27T11:28:59;94425.28;;;20.01;26.38
10462;BME280;5278;42.656;23.374;2023-04-27T11:31:27;94431.72;;;19.77;26.74
10462;BME280;5278;42.656;23.374;2023-04-27T11:33:54;94418.66;;;19.19;27.78
10462;BME280;5278;42.656;23.374;2023-04-27T11:36:22;94434.72;;;19.06;28.40
10462;BME280;5278;42.656;23.374;2023-04-27T11:38:56;94438.25;;;18.41;29.10
10462;BME280;5278;42.656;23.374;2023-04-27T11:41:32;94453.75;;;18.20;29.03
10462;BME280;5278;42.656;23.374;2023-04-27T11:44:03;94335.44;;;18.43;29.39
10462;BME280;5278;42.656;23.374;2023-04-27T11:46:32;94438.19;;;19.58;27.93
10462;BME280;5278;42.656;23.374;2023-04-27T11:49:01;94437.91;;;19.31;28.11
10462;BME280;5278;42.656;23.374;2023-04-27T11:51:31;94441.94;;;19.10;28.30
10462;BME280;5278;42.656;23.374;2023-04-27T11:54:02;94446.50;;;19.26;28.58
10462;BME280;5278;42.656;23.374;2023-04-27T11:56:33;94444.56;;;19.22;28.21
10462;BME280;5278;42.656;23.374;2023-04-27T11:59:01;94439.31;;;18.75;28.79
10462;BME280;5278;42.656;23.374;2023-04-27T12:01:30;94449.69;;;18.47;28.98
10462;BME280;5278;42.656;23.374;2023-04-27T12:03:57;94442.09;;;18.16;29.22
10462;BME280;5278;42.656;23.374;2023-04-27T12:06:24;94447.22;;;18.11;30.16
10462;BME280;5278;42.656;23.374;2023-04-27T12:08:55;94443.34;;;18.25;29.17
10462;BME280;5278;42.656;23.374;2023-04-27T12:11:23;94453.69;;;18.38;29.29
10462;BME280;5278;42.656;23.374;2023-04-27T12:13:50;94446.47;;;18.33;29.43
10462;BME280;5278;42.656;23.374;2023-04-27T12:16:18;94453.97;;;18.18;29.66
10462;BME280;5278;42.656;23.374;2023-04-27T12:18:46;94453.25;;;17.99;30.06
10462;BME280;5278;42.656;23.374;2023-04-27T12:21:13;94448.66;;;17.95;29.85
10462;BME280;5278;42.656;23.374;2023-04-27T12:23:40;94462.25;;;17.92;30.38
10462;BME280;5278;42.656;23.374;2023-04-27T12:26:10;94457.56;;;17.94;30.62
10462;BME280;5278;42.656;23.374;2023-04-27T12:28:37;94457.41;;;18.07;30.10
10462;BME280;5278;42.656;23.374;2023-04-27T12:31:04;94384.59;;;17.48;29.70
10462;BME280;5278;42.656;23.374;2023-04-27T12:33:32;94458.47;;;17.88;30.00
10462;BME280;5278;42.656;23.374;2023-04-27T12:35:59;94448.56;;;18.01;30.43
10462;BME280;5278;42.656;23.374;2023-04-27T12:38:26;94451.59;;;18.17;29.82
10462;BME280;5278;42.656;23.374;2023-04-27T12:40:53;94454.00;;;18.30;28.85
10462;BME280;5278;42.656;23.374;2023-04-27T12:43:22;94460.41;;;18.22;30.04
10462;BME280;5278;42.656;23.374;2023-04-27T12:45:48;94448.25;;;18.10;29.89
10462;BME280;5278;42.656;23.374;2023-04-27T12:48:15;94456.94;;;18.10;29.85
10462;BME280;5278;42.656;23.374;2023-04-27T12:50:42;94457.81;;;18.04;30.03
10462;BME280;5278;42.656;23.374;2023-04-27T12:53:09;94459.66;;;18.03;29.68
10462;BME280;5278;42.656;23.374;2023-04-27T12:55:36;94456.25;;;17.73;29.96
10462;BME280;5278;42.656;23.374;2023-04-27T12:58:03;94453.63;;;17.73;30.54
10462;BME280;5278;42.656;23.374;2023-04-27T13:00:32;94458.84;;;17.91;30.66
10462;BME280;5278;42.656;23.374;2023-04-27T13:02:59;94445.63;;;18.10;30.37
10462;BME280;5278;42.656;23.374;2023-04-27T13:05:26;94448.06;;;18.34;29.94
10462;BME280;5278;42.656;23.374;2023-04-27T13:07:53;94448.09;;;18.46;29.52